Terminal Aerodrome Forecast
Issued by NWS Grand Forks, ND

Home | Current Version | Previous Version | Graphics & Text | Print | Product List | Glossary On
Versions: 1 2 3 4 5 6 7 8 9 10 11 12 13 14 15 16 17
000
FTUS43 KFGF 251700
TAFGFK
TAF
KGFK 251720Z 2518/2618 06003KT P6SM OVC015
     FM260000 01008KT 4SM BR OVC015
     FM260600 35014KT P6SM OVC025
     FM261200 35016KT P6SM OVC050
     FM261500 35013G20KT P6SM FEW050=

USA.gov is the U.S. government's official web portal to all federal, state and local government web resources and services.